sensor_id;sensor_type;location;lat;lon;timestamp;pressure;altitude;pressure_sealevel;temperature;humidity
75701;BME280;64321;48.796;44.740;2024-01-30T00:00:16;103567.72;;;-3.05;100.00
75701;BME280;64321;48.796;44.740;2024-01-30T00:05:19;103567.31;;;-2.83;100.00
75701;BME280;64321;48.796;44.740;2024-01-30T00:10:22;103555.44;;;-2.73;100.00
75701;BME280;64321;48.796;44.740;2024-01-30T00:15:24;103544.34;;;-2.69;100.00
75701;BME280;64321;48.796;44.740;2024-01-30T00:20:27;103543.75;;;-2.54;100.00
75701;BME280;64321;48.796;44.740;2024-01-30T00:25:29;103543.41;;;-2.72;100.00
75701;BME280;64321;48.796;44.740;2024-01-30T00:30:32;103526.28;;;-2.64;100.00
75701;BME280;64321;48.796;44.740;2024-01-30T00:35:35;103525.63;;;-2.56;100.00
75701;BME280;64321;48.796;44.740;2024-01-30T00:40:37;103520.09;;;-2.74;100.00
75701;BME280;64321;48.796;44.740;2024-01-30T00:45:40;103520.59;;;-2.92;100.00
75701;BME280;64321;48.796;44.740;2024-01-30T00:50:42;103513.91;;;-2.81;100.00
75701;BME280;64321;48.796;44.740;2024-01-30T00:55:45;103493.53;;;-2.65;100.00
75701;BME280;64321;48.796;44.740;2024-01-30T01:00:48;103501.59;;;-2.94;100.00
75701;BME280;64321;48.796;44.740;2024-01-30T01:05:51;103506.81;;;-2.91;100.00
75701;BME280;64321;48.796;44.740;2024-01-30T01:10:53;103506.75;;;-2.49;100.00
75701;BME280;64321;48.796;44.740;2024-01-30T01:15:56;103502.13;;;-2.66;100.00
75701;BME280;64321;48.796;44.740;2024-01-30T01:26:45;103501.47;;;-2.56;100.00
75701;BME280;64321;48.796;44.740;2024-01-30T01:31:48;103490.88;;;-2.22;100.00
75701;BME280;64321;48.796;44.740;2024-01-30T01:36:51;103484.38;;;-2.47;100.00
75701;BME280;64321;48.796;44.740;2024-01-30T01:41:53;103485.16;;;-2.02;100.00
75701;BME280;64321;48.796;44.740;2024-01-30T01:46:56;103498.41;;;-1.84;100.00
75701;BME280;64321;48.796;44.740;2024-01-30T01:51:59;103492.41;;;-1.82;100.00
75701;BME280;64321;48.796;44.740;2024-01-30T01:57:03;103496.84;;;-1.73;100.00
75701;BME280;64321;48.796;44.740;2024-01-30T02:02:07;103493.47;;;-1.69;100.00
75701;BME280;64321;48.796;44.740;2024-01-30T02:07:13;103490.69;;;-1.83;100.00
75701;BME280;64321;48.796;44.740;2024-01-30T02:12:16;103482.66;;;-1.96;100.00
75701;BME280;64321;48.796;44.740;2024-01-30T02:17:18;103487.75;;;-2.02;100.00
75701;BME280;64321;48.796;44.740;2024-01-30T02:22:22;103487.19;;;-2.36;100.00
75701;BME280;64321;48.796;44.740;2024-01-30T02:27:24;103485.75;;;-2.19;100.00
75701;BME280;64321;48.796;44.740;2024-01-30T02:32:27;103489.84;;;-2.31;100.00
75701;BME280;64321;48.796;44.740;2024-01-30T02:37:30;103470.19;;;-2.20;100.00
75701;BME280;64321;48.796;44.740;2024-01-30T02:42:32;103468.84;;;-1.98;100.00
75701;BME280;64321;48.796;44.740;2024-01-30T02:47:35;103454.31;;;-1.89;100.00
75701;BME280;64321;48.796;44.740;2024-01-30T02:52:37;103450.38;;;-1.64;100.00
75701;BME280;64321;48.796;44.740;2024-01-30T02:57:40;103446.09;;;-1.60;100.00
75701;BME280;64321;48.796;44.740;2024-01-30T03:02:43;103450.72;;;-1.97;100.00
75701;BME280;64321;48.796;44.740;2024-01-30T03:07:45;103459.94;;;-2.16;100.00
75701;BME280;64321;48.796;44.740;2024-01-30T03:12:48;103465.28;;;-2.05;100.00
75701;BME280;64321;48.796;44.740;2024-01-30T03:17:51;103457.34;;;-2.14;100.00
75701;BME280;64321;48.796;44.740;2024-01-30T03:22:54;103453.84;;;-2.18;100.00
75701;BME280;64321;48.796;44.740;2024-01-30T03:27:57;103464.31;;;-2.10;100.00
75701;BME280;64321;48.796;44.740;2024-01-30T03:33:00;103453.97;;;-2.10;100.00
75701;BME280;64321;48.796;44.740;2024-01-30T03:38:02;103446.63;;;-1.84;100.00
75701;BME280;64321;48.796;44.740;2024-01-30T03:43:05;103430.03;;;-1.95;100.00
75701;BME280;64321;48.796;44.740;2024-01-30T03:48:08;103418.81;;;-1.96;100.00
75701;BME280;64321;48.796;44.740;2024-01-30T03:53:10;103419.03;;;-1.82;100.00
75701;BME280;64321;48.796;44.740;2024-01-30T03:58:13;103424.22;;;-1.79;100.00
75701;BME280;64321;48.796;44.740;2024-01-30T04:03:15;103428.41;;;-1.89;100.00
75701;BME280;64321;48.796;44.740;2024-01-30T04:08:18;103420.34;;;-2.08;100.00
75701;BME280;64321;48.796;44.740;2024-01-30T04:13:21;103420.50;;;-1.99;100.00
75701;BME280;64321;48.796;44.740;2024-01-30T04:18:23;103417.97;;;-1.93;100.00
75701;BME280;64321;48.796;44.740;2024-01-30T04:23:26;103423.31;;;-1.84;100.00
75701;BME280;64321;48.796;44.740;2024-01-30T04:28:28;103410.69;;;-1.60;100.00
75701;BME280;64321;48.796;44.740;2024-01-30T04:33:32;103409.47;;;-1.86;100.00
75701;BME280;64321;48.796;44.740;2024-01-30T04:38:34;103417.09;;;-1.95;100.00
75701;BME280;64321;48.796;44.740;2024-01-30T04:43:38;103411.28;;;-1.79;100.00
75701;BME280;64321;48.796;44.740;2024-01-30T04:48:41;103412.28;;;-1.71;100.00
75701;BME280;64321;48.796;44.740;2024-01-30T04:53:43;103405.22;;;-1.81;100.00
75701;BME280;64321;48.796;44.740;2024-01-30T04:58:46;103403.59;;;-1.73;100.00
75701;BME280;64321;48.796;44.740;2024-01-30T05:03:49;103405.41;;;-1.69;100.00
75701;BME280;64321;48.796;44.740;2024-01-30T05:08:51;103405.66;;;-1.51;100.00
75701;BME280;64321;48.796;44.740;2024-01-30T05:13:54;103402.16;;;-1.53;100.00
75701;BME280;64321;48.796;44.740;2024-01-30T05:18:56;103393.75;;;-1.35;100.00
75701;BME280;64321;48.796;44.740;2024-01-30T05:24:03;103385.94;;;-1.38;100.00
75701;BME280;64321;48.796;44.740;2024-01-30T05:29:06;103393.66;;;-1.41;100.00
75701;BME280;64321;48.796;44.740;2024-01-30T05:34:09;103386.06;;;-1.27;100.00
75701;BME280;64321;48.796;44.740;2024-01-30T05:39:12;103368.81;;;-1.24;100.00
75701;BME280;64321;48.796;44.740;2024-01-30T05:44:15;103371.53;;;-1.13;100.00
75701;BME280;64321;48.796;44.740;2024-01-30T05:49:18;103373.16;;;-1.21;100.00
75701;BME280;64321;48.796;44.740;2024-01-30T05:54:20;103374.22;;;-1.02;100.00
75701;BME280;64321;48.796;44.740;2024-01-30T05:59:24;103362.28;;;-0.88;100.00
75701;BME280;64321;48.796;44.740;2024-01-30T06:04:27;103358.81;;;-0.89;100.00
75701;BME280;64321;48.796;44.740;2024-01-30T06:09:30;103351.03;;;-0.89;100.00
75701;BME280;64321;48.796;44.740;2024-01-30T06:14:32;103360.63;;;-0.82;100.00
75701;BME280;64321;48.796;44.740;2024-01-30T06:19:35;103339.03;;;-0.78;100.00
75701;BME280;64321;48.796;44.740;2024-01-30T06:24:38;103347.72;;;-0.74;100.00
75701;BME280;64321;48.796;44.740;2024-01-30T06:29:42;103337.31;;;-0.79;100.00
75701;BME280;64321;48.796;44.740;2024-01-30T06:34:45;103342.75;;;-0.48;100.00
75701;BME280;64321;48.796;44.740;2024-01-30T06:39:48;103331.50;;;-0.47;100.00
75701;BME280;64321;48.796;44.740;2024-01-30T06:44:51;103321.19;;;-0.35;100.00
75701;BME280;64321;48.796;44.740;2024-01-30T06:49:53;103307.56;;;-0.05;100.00
75701;BME280;64321;48.796;44.740;2024-01-30T06:54:56;103317.88;;;-0.20;100.00
75701;BME280;64321;48.796;44.740;2024-01-30T06:59:58;103297.19;;;-0.04;100.00
75701;BME280;64321;48.796;44.740;2024-01-30T07:05:01;103301.50;;;0.00;100.00
75701;BME280;64321;48.796;44.740;2024-01-30T07:10:06;103311.22;;;0.33;100.00
75701;BME280;64321;48.796;44.740;2024-01-30T07:15:09;103320.75;;;0.39;100.00
75701;BME280;64321;48.796;44.740;2024-01-30T07:20:11;103298.19;;;0.29;100.00
75701;BME280;64321;48.796;44.740;2024-01-30T07:25:19;103296.50;;;0.34;100.00
75701;BME280;64321;48.796;44.740;2024-01-30T07:30:22;103282.59;;;0.27;100.00
75701;BME280;64321;48.796;44.740;2024-01-30T07:35:25;103284.34;;;0.28;100.00
75701;BME280;64321;48.796;44.740;2024-01-30T07:40:28;103275.66;;;0.25;100.00
75701;BME280;64321;48.796;44.740;2024-01-30T07:45:31;103262.72;;;0.42;100.00
75701;BME280;64321;48.796;44.740;2024-01-30T07:50:36;103261.84;;;0.41;100.00
75701;BME280;64321;48.796;44.740;2024-01-30T07:55:38;103241.03;;;0.38;100.00
75701;BME280;64321;48.796;44.740;2024-01-30T08:00:41;103247.16;;;0.58;100.00
75701;BME280;64321;48.796;44.740;2024-01-30T08:05:44;103233.28;;;0.47;100.00
75701;BME280;64321;48.796;44.740;2024-01-30T08:10:46;103216.81;;;0.60;100.00
75701;BME280;64321;48.796;44.740;2024-01-30T08:15:50;103204.72;;;0.70;100.00
75701;BME280;64321;48.796;44.740;2024-01-30T08:20:52;103214.25;;;0.85;100.00
75701;BME280;64321;48.796;44.740;2024-01-30T08:25:55;103189.13;;;0.84;100.00
75701;BME280;64321;48.796;44.740;2024-01-30T08:30:58;103173.50;;;1.02;100.00
75701;BME280;64321;48.796;44.740;2024-01-30T08:36:00;103168.31;;;0.87;100.00
75701;BME280;64321;48.796;44.740;2024-01-30T08:41:03;103158.75;;;1.04;100.00
75701;BME280;64321;48.796;44.740;2024-01-30T08:46:06;103137.03;;;1.20;100.00
75701;BME280;64321;48.796;44.740;2024-01-30T08:51:08;103135.34;;;1.04;100.00
75701;BME280;64321;48.796;44.740;2024-01-30T08:56:11;103147.44;;;1.13;100.00
75701;BME280;64321;48.796;44.740;2024-01-30T09:01:14;103113.66;;;0.99;100.00
75701;BME280;64321;48.796;44.740;2024-01-30T09:06:17;103099.78;;;1.03;100.00
75701;BME280;64321;48.796;44.740;2024-01-30T09:11:20;103078.09;;;1.04;100.00
75701;BME280;64321;48.796;44.740;2024-01-30T09:16:25;103055.50;;;1.24;100.00
75701;BME280;64321;48.796;44.740;2024-01-30T09:21:28;103045.16;;;1.03;100.00
75701;BME280;64321;48.796;44.740;2024-01-30T09:26:30;103059.94;;;0.81;100.00
75701;BME280;64321;48.796;44.740;2024-01-30T09:31:33;103020.72;;;1.39;100.00
75701;BME280;64321;48.796;44.740;2024-01-30T09:36:36;103013.69;;;1.49;100.00
75701;BME280;64321;48.796;44.740;2024-01-30T09:41:51;103006.72;;;1.60;100.00
75701;BME280;64321;48.796;44.740;2024-01-30T09:46:57;102985.25;;;2.36;100.00
75701;BME280;64321;48.796;44.740;2024-01-30T09:52:06;102994.34;;;1.92;100.00
75701;BME280;64321;48.796;44.740;2024-01-30T09:57:11;102989.28;;;1.71;100.00
75701;BME280;64321;48.796;44.740;2024-01-30T10:02:14;102982.53;;;1.43;100.00
75701;BME280;64321;48.796;44.740;2024-01-30T10:07:18;103000.94;;;0.98;100.00
75701;BME280;64321;48.796;44.740;2024-01-30T10:12:21;102995.78;;;0.85;100.00
75701;BME280;64321;48.796;44.740;2024-01-30T10:17:25;102965.31;;;1.14;100.00
75701;BME280;64321;48.796;44.740;2024-01-30T10:22:35;102979.91;;;1.41;100.00
75701;BME280;64321;48.796;44.740;2024-01-30T10:27:39;102954.56;;;1.66;100.00
75701;BME280;64321;48.796;44.740;2024-01-30T10:32:42;102951.94;;;1.70;100.00
75701;BME280;64321;48.796;44.740;2024-01-30T10:37:47;102942.75;;;1.10;100.00
75701;BME280;64321;48.796;44.740;2024-01-30T10:42:52;102938.28;;;1.36;100.00
75701;BME280;64321;48.796;44.740;2024-01-30T10:47:59;102934.72;;;1.50;100.00
75701;BME280;64321;48.796;44.740;2024-01-30T10:53:04;102935.56;;;1.55;100.00
75701;BME280;64321;48.796;44.740;2024-01-30T10:58:07;102916.59;;;1.34;100.00
75701;BME280;64321;48.796;44.740;2024-01-30T11:03:11;102903.34;;;1.66;100.00
75701;BME280;64321;48.796;44.740;2024-01-30T11:08:14;102895.31;;;1.92;100.00
75701;BME280;64321;48.796;44.740;2024-01-30T11:13:18;102908.50;;;1.74;100.00
75701;BME280;64321;48.796;44.740;2024-01-30T11:18:25;102914.91;;;1.27;100.00
75701;BME280;64321;48.796;44.740;2024-01-30T11:23:28;102924.44;;;1.27;100.00
75701;BME280;64321;48.796;44.740;2024-01-30T11:28:34;102897.44;;;1.45;100.00
75701;BME280;64321;48.796;44.740;2024-01-30T11:33:37;102899.13;;;1.53;100.00
75701;BME280;64321;48.796;44.740;2024-01-30T11:38:40;102893.97;;;1.46;100.00
75701;BME280;64321;48.796;44.740;2024-01-30T11:43:53;102895.91;;;1.16;100.00
75701;BME280;64321;48.796;44.740;2024-01-30T11:48:56;102902.75;;;1.26;100.00
75701;BME280;64321;48.796;44.740;2024-01-30T11:53:59;102893.38;;;1.02;100.00
75701;BME280;64321;48.796;44.740;2024-01-30T11:59:01;102915.00;;;1.14;100.00
75701;BME280;64321;48.796;44.740;2024-01-30T12:04:04;102891.66;;;1.04;100.00
75701;BME280;64321;48.796;44.740;2024-01-30T12:09:12;102901.28;;;0.89;100.00
75701;BME280;64321;48.796;44.740;2024-01-30T12:14:16;102899.50;;;0.91;100.00
75701;BME280;64321;48.796;44.740;2024-01-30T12:19:26;102874.44;;;0.79;100.00
75701;BME280;64321;48.796;44.740;2024-01-30T12:24:29;102876.06;;;0.97;100.00
75701;BME280;64321;48.796;44.740;2024-01-30T12:29:32;102865.75;;;0.77;100.00
75701;BME280;64321;48.796;44.740;2024-01-30T12:34:41;102883.09;;;0.80;100.00
75701;BME280;64321;48.796;44.740;2024-01-30T12:39:58;102868.44;;;0.68;100.00
75701;BME280;64321;48.796;44.740;2024-01-30T12:45:02;102903.16;;;0.40;100.00
75701;BME280;64321;48.796;44.740;2024-01-30T12:50:06;102865.09;;;0.31;100.00
75701;BME280;64321;48.796;44.740;2024-01-30T12:55:09;102882.44;;;0.20;100.00
75701;BME280;64321;48.796;44.740;2024-01-30T13:00:12;102858.22;;;0.15;100.00
75701;BME280;64321;48.796;44.740;2024-01-30T13:05:14;102852.97;;;0.24;100.00
75701;BME280;64321;48.796;44.740;2024-01-30T13:10:18;102858.19;;;0.21;100.00
75701;BME280;64321;48.796;44.740;2024-01-30T13:15:20;102868.63;;;0.12;100.00
75701;BME280;64321;48.796;44.740;2024-01-30T13:20:25;102878.97;;;0.24;100.00
75701;BME280;64321;48.796;44.740;2024-01-30T13:25:27;102877.31;;;-0.02;100.00
75701;BME280;64321;48.796;44.740;2024-01-30T13:30:30;102866.03;;;0.07;100.00
75701;BME280;64321;48.796;44.740;2024-01-30T13:35:33;102865.19;;;-0.03;100.00
75701;BME280;64321;48.796;44.740;2024-01-30T13:40:36;102862.63;;;-0.27;100.00
75701;BME280;64321;48.796;44.740;2024-01-30T13:45:38;102844.44;;;-0.30;100.00
75701;BME280;64321;48.796;44.740;2024-01-30T13:50:42;102839.28;;;-0.39;100.00
75701;BME280;64321;48.796;44.740;2024-01-30T13:55:44;102846.19;;;-0.38;100.00
75701;BME280;64321;48.796;44.740;2024-01-30T14:00:47;102846.19;;;-0.46;100.00
75701;BME280;64321;48.796;44.740;2024-01-30T14:05:50;102866.94;;;-0.53;100.00
75701;BME280;64321;48.796;44.740;2024-01-30T14:10:53;102832.34;;;-0.64;100.00
75701;BME280;64321;48.796;44.740;2024-01-30T14:15:55;102837.50;;;-0.71;100.00
75701;BME280;64321;48.796;44.740;2024-01-30T14:21:00;102817.63;;;-0.70;100.00
75701;BME280;64321;48.796;44.740;2024-01-30T14:26:02;102844.44;;;-0.76;100.00
75701;BME280;64321;48.796;44.740;2024-01-30T14:31:05;102823.69;;;-0.85;100.00
75701;BME280;64321;48.796;44.740;2024-01-30T14:36:08;102842.72;;;-0.67;100.00
75701;BME280;64321;48.796;44.740;2024-01-30T14:41:12;102840.97;;;-0.68;100.00
75701;BME280;64321;48.796;44.740;2024-01-30T14:46:14;102861.72;;;-0.84;100.00
75701;BME280;64321;48.796;44.740;2024-01-30T14:51:17;102847.06;;;-0.73;100.00
75701;BME280;64321;48.796;44.740;2024-01-30T14:56:20;102879.03;;;-0.80;100.00
75701;BME280;64321;48.796;44.740;2024-01-30T15:01:23;102878.19;;;-0.74;100.00
75701;BME280;64321;48.796;44.740;2024-01-30T15:06:26;102865.19;;;-0.70;100.00
75701;BME280;64321;48.796;44.740;2024-01-30T15:11:28;102860.00;;;-0.82;100.00
75701;BME280;64321;48.796;44.740;2024-01-30T15:16:31;102864.31;;;-0.70;100.00
75701;BME280;64321;48.796;44.740;2024-01-30T15:21:34;102863.47;;;-0.64;100.00
75701;BME280;64321;48.796;44.740;2024-01-30T15:26:37;102857.44;;;-0.74;100.00
75701;BME280;64321;48.796;44.740;2024-01-30T15:31:39;102857.41;;;-0.71;100.00
75701;BME280;64321;48.796;44.740;2024-01-30T15:36:42;102863.44;;;-0.89;100.00
75701;BME280;64321;48.796;44.740;2024-01-30T15:41:45;102845.31;;;-0.78;100.00
75701;BME280;64321;48.796;44.740;2024-01-30T15:46:47;102826.28;;;-0.85;100.00
75701;BME280;64321;48.796;44.740;2024-01-30T15:51:50;102840.13;;;-0.92;100.00
75701;BME280;64321;48.796;44.740;2024-01-30T15:56:53;102843.53;;;-0.99;100.00
75701;BME280;64321;48.796;44.740;2024-01-30T16:01:55;102847.00;;;-0.95;100.00
75701;BME280;64321;48.796;44.740;2024-01-30T16:06:58;102868.63;;;-0.92;100.00
75701;BME280;64321;48.796;44.740;2024-01-30T16:12:02;102845.25;;;-1.01;100.00
75701;BME280;64321;48.796;44.740;2024-01-30T16:17:05;102844.41;;;-1.08;100.00
75701;BME280;64321;48.796;44.740;2024-01-30T16:22:08;102842.69;;;-0.92;100.00
75701;BME280;64321;48.796;44.740;2024-01-30T16:27:11;102835.78;;;-0.97;100.00
75701;BME280;64321;48.796;44.740;2024-01-30T16:32:14;102840.06;;;-1.04;100.00
75701;BME280;64321;48.796;44.740;2024-01-30T16:37:16;102840.94;;;-0.99;100.00
75701;BME280;64321;48.796;44.740;2024-01-30T16:42:19;102846.13;;;-1.11;100.00
75701;BME280;64321;48.796;44.740;2024-01-30T16:47:22;102856.50;;;-1.02;100.00
75701;BME280;64321;48.796;44.740;2024-01-30T16:52:25;102859.94;;;-1.15;100.00
75701;BME280;64321;48.796;44.740;2024-01-30T16:57:31;102843.56;;;-0.93;100.00
75701;BME280;64321;48.796;44.740;2024-01-30T17:02:36;102840.09;;;-0.96;100.00
75701;BME280;64321;48.796;44.740;2024-01-30T17:07:39;102830.63;;;-0.75;100.00
75701;BME280;64321;48.796;44.740;2024-01-30T17:12:42;102837.50;;;-0.71;100.00
75701;BME280;64321;48.796;44.740;2024-01-30T17:17:45;102840.97;;;-0.81;100.00
75701;BME280;64321;48.796;44.740;2024-01-30T17:22:48;102830.63;;;-0.75;100.00
75701;BME280;64321;48.796;44.740;2024-01-30T17:27:51;102821.94;;;-0.71;100.00
75701;BME280;64321;48.796;44.740;2024-01-30T17:32:54;102824.56;;;-0.64;100.00
75701;BME280;64321;48.796;44.740;2024-01-30T17:37:57;102822.81;;;-0.67;100.00
75701;BME280;64321;48.796;44.740;2024-01-30T17:42:59;102821.94;;;-0.67;100.00
75701;BME280;64321;48.796;44.740;2024-01-30T17:48:02;102820.22;;;-0.72;100.00
75701;BME280;64321;48.796;44.740;2024-01-30T17:53:05;102820.22;;;-0.67;100.00
75701;BME280;64321;48.796;44.740;2024-01-30T17:58:08;102807.28;;;-0.59;100.00
75701;BME280;64321;48.796;44.740;2024-01-30T18:03:11;102821.09;;;-0.70;100.00
75701;BME280;64321;48.796;44.740;2024-01-30T18:08:14;102815.91;;;-0.65;100.00
75701;BME280;64321;48.796;44.740;2024-01-30T18:13:17;102815.91;;;-0.60;100.00
75701;BME280;64321;48.796;44.740;2024-01-30T18:18:20;102821.97;;;-0.46;100.00
75701;BME280;64321;48.796;44.740;2024-01-30T18:23:23;102825.41;;;-0.53;100.00
75701;BME280;64321;48.796;44.740;2024-01-30T18:28:27;102821.94;;;-0.51;100.00
75701;BME280;64321;48.796;44.740;2024-01-30T18:33:29;102839.28;;;-0.57;100.00
75701;BME280;64321;48.796;44.740;2024-01-30T18:38:32;102827.16;;;-0.48;100.00
75701;BME280;64321;48.796;44.740;2024-01-30T18:43:35;102837.53;;;-0.49;100.00
75701;BME280;64321;48.796;44.740;2024-01-30T18:48:38;102831.50;;;-0.54;100.00
75701;BME280;64321;48.796;44.740;2024-01-30T18:53:41;102840.13;;;-0.51;100.00
75701;BME280;64321;48.796;44.740;2024-01-30T18:58:44;102836.66;;;-0.53;100.00
75701;BME280;64321;48.796;44.740;2024-01-30T19:03:46;102849.63;;;-0.51;100.00
75701;BME280;64321;48.796;44.740;2024-01-30T19:08:49;102841.00;;;-0.56;100.00
75701;BME280;64321;48.796;44.740;2024-01-30T19:13:52;102828.03;;;-0.56;100.00
75701;BME280;64321;48.796;44.740;2024-01-30T19:18:55;102826.28;;;-0.59;100.00
75701;BME280;64321;48.796;44.740;2024-01-30T19:23:58;102831.47;;;-0.45;100.00
75701;BME280;64321;48.796;44.740;2024-01-30T19:29:02;102835.78;;;-0.50;100.00
75701;BME280;64321;48.796;44.740;2024-01-30T19:34:05;102824.56;;;-0.54;100.00
75701;BME280;64321;48.796;44.740;2024-01-30T19:39:07;102824.53;;;-0.34;100.00
75701;BME280;64321;48.796;44.740;2024-01-30T19:44:15;102813.31;;;-0.47;100.00
75701;BME280;64321;48.796;44.740;2024-01-30T19:49:20;102802.94;;;-0.59;100.00
75701;BME280;64321;48.796;44.740;2024-01-30T19:54:23;102802.06;;;-0.47;100.00
75701;BME280;64321;48.796;44.740;2024-01-30T19:59:29;102821.97;;;-0.46;100.00
75701;BME280;64321;48.796;44.740;2024-01-30T20:04:36;102827.13;;;-0.20;100.00
75701;BME280;64321;48.796;44.740;2024-01-30T20:09:39;102818.44;;;-0.15;100.00
75701;BME280;64321;48.796;44.740;2024-01-30T20:14:42;102813.25;;;-0.09;100.00
75701;BME280;64321;48.796;44.740;2024-01-30T20:19:46;102815.84;;;-0.13;100.00
75701;BME280;64321;48.796;44.740;2024-01-30T20:24:50;102818.47;;;-0.25;100.00
75701;BME280;64321;48.796;44.740;2024-01-30T20:30:08;102814.13;;;-0.17;100.00
75701;BME280;64321;48.796;44.740;2024-01-30T20:35:14;102821.06;;;-0.24;100.00
75701;BME280;64321;48.796;44.740;2024-01-30T20:40:17;102812.41;;;-0.33;100.00
75701;BME280;64321;48.796;44.740;2024-01-30T20:45:20;102795.16;;;-0.41;100.00
75701;BME280;64321;48.796;44.740;2024-01-30T20:50:22;102818.47;;;-0.31;100.00
75701;BME280;64321;48.796;44.740;2024-01-30T20:55:25;102829.72;;;-0.34;100.00
75701;BME280;64321;48.796;44.740;2024-01-30T21:00:27;102808.97;;;-0.29;100.00
75701;BME280;64321;48.796;44.740;2024-01-30T21:05:30;102819.34;;;-0.25;100.00
75701;BME280;64321;48.796;44.740;2024-01-30T21:10:33;102815.03;;;-0.40;100.00
75701;BME280;64321;48.796;44.740;2024-01-30T21:15:37;102832.28;;;-0.16;100.00
75701;BME280;64321;48.796;44.740;2024-01-30T21:20:40;102835.78;;;-0.32;100.00
75701;BME280;64321;48.796;44.740;2024-01-30T21:25:42;102806.34;;;-0.31;100.00
75701;BME280;64321;48.796;44.740;2024-01-30T21:30:46;102798.59;;;-0.49;100.00
75701;BME280;64321;48.796;44.740;2024-01-30T21:35:48;102820.22;;;-0.26;100.00
75701;BME280;64321;48.796;44.740;2024-01-30T21:40:51;102816.75;;;-0.25;100.00
75701;BME280;64321;48.796;44.740;2024-01-30T21:45:53;102830.59;;;-0.32;100.00
75701;BME280;64321;48.796;44.740;2024-01-30T21:50:56;102824.56;;;-0.46;100.00
75701;BME280;64321;48.796;44.740;2024-01-30T21:55:59;102829.72;;;-0.32;100.00
75701;BME280;64321;48.796;44.740;2024-01-30T22:01:01;102837.50;;;-0.34;100.00
75701;BME280;64321;48.796;44.740;2024-01-30T22:06:04;102827.13;;;-0.34;100.00
75701;BME280;64321;48.796;44.740;2024-01-30T22:11:07;102833.19;;;-0.24;100.00
75701;BME280;64321;48.796;44.740;2024-01-30T22:16:13;102834.06;;;-0.19;100.00
75701;BME280;64321;48.796;44.740;2024-01-30T22:21:16;102827.97;;;-0.08;100.00
75701;BME280;64321;48.796;44.740;2024-01-30T22:26:19;102840.94;;;-0.12;100.00
75701;BME280;64321;48.796;44.740;2024-01-30T22:31:21;102834.06;;;-0.24;100.00
75701;BME280;64321;48.796;44.740;2024-01-30T22:36:24;102828.84;;;-0.18;100.00
75701;BME280;64321;48.796;44.740;2024-01-30T22:41:28;102834.06;;;-0.30;100.00
75701;BME280;64321;48.796;44.740;2024-01-30T22:46:31;102834.91;;;-0.23;100.00
75701;BME280;64321;48.796;44.740;2024-01-30T22:51:33;102850.50;;;-0.32;100.00
75701;BME280;64321;48.796;44.740;2024-01-30T22:56:36;102859.97;;;0.04;100.00
75701;BME280;64321;48.796;44.740;2024-01-30T23:01:39;102853.94;;;-0.06;100.00
75701;BME280;64321;48.796;44.740;2024-01-30T23:06:42;102860.00;;;-0.27;100.00
75701;BME280;64321;48.796;44.740;2024-01-30T23:11:48;102856.56;;;-0.20;100.00
75701;BME280;64321;48.796;44.740;2024-01-30T23:16:50;102865.22;;;-0.36;100.00
75701;BME280;64321;48.796;44.740;2024-01-30T23:21:53;102848.75;;;-0.27;100.00
75701;BME280;64321;48.796;44.740;2024-01-30T23:26:56;102858.28;;;-0.22;100.00
75701;BME280;64321;48.796;44.740;2024-01-30T23:31:58;102860.03;;;-0.36;100.00
75701;BME280;64321;48.796;44.740;2024-01-30T23:37:01;102850.50;;;-0.23;100.00
75701;BME280;64321;48.796;44.740;2024-01-30T23:42:04;102852.22;;;-0.30;100.00
75701;BME280;64321;48.796;44.740;2024-01-30T23:47:07;102846.16;;;-0.35;100.00
75701;BME280;64321;48.796;44.740;2024-01-30T23:52:09;102857.41;;;-0.27;100.00
75701;BME280;64321;48.796;44.740;2024-01-30T23:57:12;102844.44;;;-0.33;100.00
